createdAt,value
2023-03-05T00:01:24.814Z,79.67
2023-03-05T00:03:54.788Z,80.38
2023-03-05T00:06:25.833Z,80.08
2023-03-05T00:08:53.572Z,80.76
2023-03-05T00:11:21.762Z,81.37
2023-03-05T00:13:52.479Z,82.38
2023-03-05T00:16:20.478Z,82.08
2023-03-05T00:18:47.934Z,83.10
2023-03-05T00:21:28.003Z,82.30
2023-03-05T00:23:56.398Z,82.91
2023-03-05T00:26:26.018Z,82.43
2023-03-05T00:28:54.377Z,82.97
2023-03-05T00:31:24.910Z,81.35
2023-03-05T00:33:54.935Z,81.85
2023-03-05T00:36:24.581Z,82.27
2023-03-05T00:38:52.593Z,82.25
2023-03-05T00:41:19.699Z,83.27
2023-03-05T00:43:48.036Z,82.71
2023-03-05T00:46:15.636Z,82.82
2023-03-05T00:48:42.639Z,83.27
2023-03-05T00:51:10.392Z,83.90
2023-03-05T00:53:37.380Z,83.62
2023-03-05T00:56:05.321Z,83.30
2023-03-05T00:58:32.273Z,84.19
2023-03-05T01:01:01.502Z,83.93
2023-03-05T01:03:29.940Z,84.88
2023-03-05T01:05:57.651Z,85.52
2023-03-05T01:08:25.683Z,85.71
2023-03-05T01:10:53.041Z,85.95
2023-03-05T01:13:20.156Z,86.51
2023-03-05T01:15:48.760Z,87.40
2023-03-05T01:18:17.308Z,88.43
2023-03-05T01:20:44.155Z,89.97
2023-03-05T01:23:11.120Z,90.47
2023-03-05T01:25:38.614Z,91.48
2023-03-05T01:28:05.987Z,91.42
2023-03-05T01:30:33.590Z,91.04
2023-03-05T01:33:00.563Z,91.39
2023-03-05T01:35:28.952Z,92.58
2023-03-05T01:37:56.670Z,92.36
2023-03-05T01:40:31.795Z,91.73
2023-03-05T01:43:12.956Z,91.56
2023-03-05T01:46:34.973Z,91.12
2023-03-05T01:49:15.237Z,91.01
2023-03-05T01:52:03.273Z,91.19
2023-03-05T01:54:41.576Z,90.85
2023-03-05T01:57:16.778Z,91.04
2023-03-05T01:59:48.819Z,90.34
2023-03-05T02:02:16.960Z,89.75
2023-03-05T02:05:09.693Z,90.42
2023-03-05T02:07:37.998Z,90.09
2023-03-05T02:10:20.315Z,89.73
2023-03-05T02:12:49.152Z,90.74
2023-03-05T02:15:37.839Z,89.71
2023-03-05T02:18:07.262Z,89.74
2023-03-05T02:20:47.138Z,90.03
2023-03-05T02:23:15.268Z,89.18
2023-03-05T02:25:42.271Z,89.38
2023-03-05T02:28:23.001Z,89.60
2023-03-05T02:30:50.526Z,89.34
2023-03-05T02:33:19.338Z,89.83
2023-03-05T02:35:46.499Z,90.10
2023-03-05T02:38:16.901Z,89.95
2023-03-05T02:40:44.175Z,90.70
2023-03-05T02:43:12.329Z,90.90
2023-03-05T02:45:39.633Z,91.41
2023-03-05T02:48:06.913Z,91.39
2023-03-05T02:50:34.784Z,91.87
2023-03-05T02:53:01.784Z,91.97
2023-03-05T02:55:29.647Z,92.64
2023-03-05T02:57:56.591Z,92.12
2023-03-05T03:00:23.826Z,92.42
2023-03-05T03:02:51.103Z,91.82
2023-03-05T03:05:18.247Z,92.80
2023-03-05T03:07:45.197Z,92.58
2023-03-05T03:10:12.486Z,92.23
2023-03-05T03:12:42.315Z,91.95
2023-03-05T03:15:12.340Z,91.58
2023-03-05T03:17:39.703Z,92.07
2023-03-05T03:20:10.257Z,92.63
2023-03-05T03:22:37.416Z,93.11
2023-03-05T03:25:05.560Z,92.46
2023-03-05T03:27:32.454Z,92.62
2023-03-05T03:30:02.698Z,91.89
2023-03-05T03:32:32.606Z,92.64
2023-03-05T03:35:00.383Z,92.39
2023-03-05T03:37:27.590Z,92.55
2023-03-05T03:39:54.505Z,92.82
2023-03-05T03:42:23.004Z,91.75
2023-03-05T03:44:51.171Z,92.02
2023-03-05T03:47:18.531Z,91.47
2023-03-05T03:49:45.459Z,91.58
2023-03-05T03:52:12.360Z,91.91
2023-03-05T03:54:39.332Z,91.13
2023-03-05T03:57:06.488Z,91.00
2023-03-05T03:59:33.438Z,91.50
2023-03-05T04:02:00.370Z,91.51
2023-03-05T04:04:29.226Z,91.47
2023-03-05T04:06:57.092Z,91.42
2023-03-05T04:09:24.084Z,90.93
2023-03-05T04:11:51.075Z,91.87
2023-03-05T04:14:18.193Z,91.87
2023-03-05T04:16:45.061Z,91.65
2023-03-05T04:19:12.188Z,90.96
2023-03-05T04:21:40.151Z,90.80
2023-03-05T04:24:08.315Z,90.94
2023-03-05T04:26:35.762Z,90.49
2023-03-05T04:29:02.746Z,90.37
2023-03-05T04:31:29.871Z,90.90
2023-03-05T04:33:56.867Z,91.17
2023-03-05T04:36:23.984Z,92.16
2023-03-05T04:38:50.969Z,92.43
2023-03-05T04:41:17.936Z,93.29
2023-03-05T04:43:44.850Z,92.61
2023-03-05T04:46:11.786Z,92.82
2023-03-05T04:48:38.867Z,93.23
2023-03-05T04:51:05.864Z,93.40
2023-03-05T04:53:33.257Z,92.84
2023-03-05T04:56:01.612Z,92.58
2023-03-05T04:58:29.324Z,93.05
2023-03-05T05:01:02.517Z,92.09
2023-03-05T05:03:29.914Z,92.51
2023-03-05T05:05:59.365Z,92.06
2023-03-05T05:08:28.009Z,92.13
2023-03-05T05:11:03.041Z,92.40
2023-03-05T05:13:30.920Z,92.02
2023-03-05T05:15:58.761Z,91.98
2023-03-05T05:18:26.237Z,92.26
2023-03-05T05:20:53.457Z,91.78
2023-03-05T05:23:20.473Z,91.66
2023-03-05T05:26:00.178Z,91.29
2023-03-05T05:28:28.005Z,91.54
2023-03-05T05:30:55.580Z,92.05
2023-03-05T05:33:23.782Z,91.04
2023-03-05T05:35:51.267Z,90.95
2023-03-05T05:38:18.568Z,91.43
2023-03-05T05:40:45.519Z,91.11
2023-03-05T05:43:12.438Z,91.60
2023-03-05T05:45:39.444Z,91.35
2023-03-05T05:48:07.066Z,91.62
2023-03-05T05:50:33.959Z,90.81
2023-03-05T05:53:00.919Z,90.77
2023-03-05T05:55:27.902Z,89.95
2023-03-05T05:57:54.934Z,90.83
2023-03-05T06:00:22.522Z,89.75
2023-03-05T06:02:49.634Z,89.61
2023-03-05T06:05:16.750Z,90.69
2023-03-05T06:07:44.553Z,90.69
2023-03-05T06:10:11.868Z,89.79
2023-03-05T06:12:39.701Z,90.75
2023-03-05T06:15:07.462Z,90.40
2023-03-05T06:17:34.705Z,89.16
2023-03-05T06:20:01.757Z,89.99
2023-03-05T06:22:30.505Z,90.46
2023-03-05T06:24:57.425Z,89.91
2023-03-05T06:27:24.376Z,89.83
2023-03-05T06:29:56.493Z,90.00
2023-03-05T06:32:23.946Z,89.70
2023-03-05T06:34:51.457Z,89.18
2023-03-05T06:37:18.586Z,89.64
2023-03-05T06:39:45.611Z,89.43
2023-03-05T06:42:12.525Z,89.70
2023-03-05T06:44:40.926Z,89.19
2023-03-05T06:47:10.548Z,89.56
2023-03-05T06:49:39.033Z,89.98
2023-03-05T06:52:07.074Z,90.02
2023-03-05T06:54:34.381Z,90.40
2023-03-05T06:57:01.453Z,91.09
2023-03-05T06:59:28.364Z,92.64
2023-03-05T07:01:55.354Z,92.70
2023-03-05T07:04:24.158Z,91.84
2023-03-05T07:06:51.273Z,91.65
2023-03-05T07:09:18.212Z,91.13
2023-03-05T07:11:45.155Z,91.57
2023-03-05T07:14:12.203Z,90.91
2023-03-05T07:16:39.212Z,91.28
2023-03-05T07:19:07.546Z,91.07
2023-03-05T07:21:37.523Z,90.47
2023-03-05T07:24:07.720Z,90.62
2023-03-05T07:26:35.091Z,90.79
2023-03-05T07:29:02.941Z,91.51
2023-03-05T07:31:33.240Z,90.97
2023-03-05T07:34:02.049Z,91.25
2023-03-05T07:36:29.963Z,90.68
2023-03-05T07:38:56.974Z,91.23
2023-03-05T07:41:23.920Z,91.07
2023-03-05T07:43:53.611Z,90.92
2023-03-05T07:46:24.808Z,89.81
2023-03-05T07:48:54.504Z,89.72
2023-03-05T07:51:22.751Z,89.77
2023-03-05T07:53:52.981Z,88.60
2023-03-05T07:56:32.260Z,88.71
2023-03-05T07:59:00.864Z,89.49
2023-03-05T08:01:29.587Z,89.87
2023-03-05T08:03:56.655Z,90.58
2023-03-05T08:06:23.708Z,92.14
2023-03-05T08:08:50.833Z,93.18
2023-03-05T08:11:18.032Z,93.76
2023-03-05T08:13:45.562Z,93.15
2023-03-05T08:16:21.065Z,92.67
2023-03-05T08:18:48.709Z,92.04
2023-03-05T08:21:18.837Z,91.37
2023-03-05T08:23:45.853Z,91.41
2023-03-05T08:26:16.109Z,91.89
2023-03-05T08:28:44.101Z,92.14
2023-03-05T08:31:13.551Z,91.65
2023-03-05T08:33:41.200Z,91.29
2023-03-05T08:36:09.882Z,92.40
2023-03-05T08:38:37.145Z,91.93
2023-03-05T08:41:05.522Z,92.26
2023-03-05T08:43:33.206Z,92.44
2023-03-05T08:46:01.550Z,91.23
2023-03-05T08:48:29.963Z,90.40
2023-03-05T08:50:56.882Z,90.26
2023-03-05T08:53:24.255Z,89.35
2023-03-05T08:55:56.565Z,89.12
2023-03-05T08:58:24.436Z,88.10
2023-03-05T09:00:52.019Z,88.57
2023-03-05T09:03:19.555Z,88.11
2023-03-05T09:05:46.664Z,87.48
2023-03-05T09:08:13.918Z,87.61
2023-03-05T09:10:45.943Z,87.08
2023-03-05T09:13:13.200Z,87.21
2023-03-05T09:15:40.063Z,86.84
2023-03-05T09:18:09.001Z,87.30
2023-03-05T09:20:37.205Z,85.22
2023-03-05T09:23:04.188Z,85.66
2023-03-05T09:25:31.135Z,85.09
2023-03-05T09:27:58.067Z,84.81
2023-03-05T09:30:25.022Z,84.13
2023-03-05T09:32:51.954Z,83.63
2023-03-05T09:35:19.086Z,83.52
2023-03-05T09:37:46.206Z,82.00
2023-03-05T09:40:18.130Z,84.18
2023-03-05T09:43:08.613Z,83.62
2023-03-05T09:45:44.345Z,83.95
2023-03-05T09:48:58.336Z,81.79
2023-03-05T09:51:31.440Z,79.76
2023-03-05T09:54:12.437Z,81.31
2023-03-05T09:56:48.715Z,81.92
2023-03-05T09:59:48.646Z,80.18
2023-03-05T10:02:32.267Z,80.82
2023-03-05T10:05:11.031Z,79.92
2023-03-05T10:07:43.391Z,80.94
2023-03-05T10:10:16.974Z,79.65
2023-03-05T10:12:53.780Z,80.20
2023-03-05T10:15:58.979Z,79.28
2023-03-05T10:19:25.856Z,80.46
2023-03-05T10:22:37.279Z,78.47
2023-03-05T10:25:17.970Z,77.79
2023-03-05T10:28:05.833Z,77.92
2023-03-05T10:31:09.709Z,79.97
2023-03-05T10:33:54.432Z,78.23
2023-03-05T10:36:58.233Z,79.87
2023-03-05T10:40:07.027Z,79.35
2023-03-05T10:42:56.485Z,78.45
2023-03-05T10:45:35.761Z,80.59
2023-03-05T10:48:27.807Z,79.55
2023-03-05T10:51:05.540Z,77.40
2023-03-05T10:53:45.401Z,78.28
2023-03-05T10:56:12.493Z,77.62
2023-03-05T10:58:39.394Z,76.92
2023-03-05T11:01:12.784Z,78.91
2023-03-05T11:03:59.993Z,81.48
2023-03-05T11:06:32.624Z,82.18
2023-03-05T11:09:32.522Z,82.07
2023-03-05T11:12:08.725Z,83.09
2023-03-05T11:14:39.819Z,84.43
2023-03-05T11:17:47.867Z,83.00
2023-03-05T11:20:26.921Z,83.92
2023-03-05T11:23:17.891Z,83.51
2023-03-05T11:25:58.656Z,84.68
2023-03-05T11:28:41.597Z,86.17
2023-03-05T11:31:32.018Z,87.40
2023-03-05T11:34:30.251Z,89.95
2023-03-05T11:36:57.022Z,91.00
2023-03-05T11:39:30.321Z,90.99
2023-03-05T11:42:25.168Z,91.11
2023-03-05T11:44:55.947Z,91.09
2023-03-05T11:47:32.041Z,90.43
2023-03-05T11:50:24.771Z,89.60
2023-03-05T11:52:58.545Z,89.30
2023-03-05T11:55:46.320Z,89.13
2023-03-05T11:58:22.740Z,89.53
2023-03-05T12:00:49.727Z,88.45
2023-03-05T12:03:26.447Z,89.16
2023-03-05T12:06:17.739Z,89.70
2023-03-05T12:08:49.977Z,88.72
2023-03-05T12:11:32.360Z,89.20
2023-03-05T12:14:20.020Z,88.67
2023-03-05T12:16:51.851Z,87.03
2023-03-05T12:19:35.709Z,87.49
2023-03-05T12:22:04.164Z,86.74
2023-03-05T12:24:30.966Z,85.10
2023-03-05T12:27:10.380Z,83.34
2023-03-05T12:29:53.143Z,82.21
2023-03-05T12:32:23.074Z,80.72
2023-03-05T12:35:19.316Z,81.21
2023-03-05T12:37:52.286Z,78.20
2023-03-05T12:40:34.613Z,78.37
2023-03-05T12:43:06.100Z,77.23
2023-03-05T12:45:42.221Z,76.43
2023-03-05T12:48:12.119Z,74.82
2023-03-05T12:50:38.954Z,74.76
2023-03-05T12:53:20.323Z,72.93
2023-03-05T12:55:58.553Z,75.77
2023-03-05T12:58:49.843Z,74.41
2023-03-05T13:01:45.846Z,74.68
2023-03-05T13:04:26.951Z,74.61
2023-03-05T13:07:13.453Z,74.39
2023-03-05T13:09:40.572Z,72.46
2023-03-05T13:12:14.114Z,72.68
2023-03-05T13:14:48.967Z,71.36
2023-03-05T13:17:44.419Z,71.71
2023-03-05T13:20:42.728Z,67.95
2023-03-05T13:23:23.994Z,67.46
2023-03-05T13:26:20.519Z,70.51
2023-03-05T13:29:14.713Z,70.73
2023-03-05T13:31:57.248Z,68.79
2023-03-05T13:34:46.247Z,68.60
2023-03-05T13:37:29.388Z,67.34
2023-03-05T13:40:14.737Z,66.25
2023-03-05T13:42:41.741Z,64.83
2023-03-05T13:45:26.756Z,66.98
2023-03-05T13:48:03.909Z,64.74
2023-03-05T13:50:37.913Z,65.43
2023-03-05T13:53:29.416Z,65.22
2023-03-05T13:56:00.594Z,63.52
2023-03-05T13:58:54.121Z,63.30
2023-03-05T14:01:33.230Z,61.85
2023-03-05T14:04:15.672Z,65.63
2023-03-05T14:06:55.824Z,61.93
2023-03-05T14:09:30.049Z,61.76
2023-03-05T14:12:07.360Z,62.10
2023-03-05T14:14:38.478Z,61.66
2023-03-05T14:17:30.107Z,62.34
2023-03-05T14:20:24.908Z,65.20
2023-03-05T14:22:57.950Z,63.88
2023-03-05T14:25:39.544Z,64.98
2023-03-05T14:28:26.858Z,66.66
2023-03-05T14:30:56.810Z,64.87
2023-03-05T14:33:32.516Z,65.43
2023-03-05T14:36:02.114Z,64.23
2023-03-05T14:38:34.099Z,64.84
2023-03-05T14:41:40.923Z,64.64
2023-03-05T14:44:18.740Z,65.39
2023-03-05T14:46:49.947Z,65.03
2023-03-05T14:49:17.607Z,64.29
2023-03-05T14:51:46.180Z,64.86
2023-03-05T14:54:26.243Z,63.68
2023-03-05T14:56:53.532Z,63.39
2023-03-05T14:59:23.638Z,63.83
2023-03-05T15:01:50.936Z,64.29
2023-03-05T15:04:19.782Z,64.50
2023-03-05T15:06:50.836Z,64.58
2023-03-05T15:09:20.947Z,64.88
2023-03-05T15:11:48.758Z,65.67
2023-03-05T15:14:15.722Z,66.73
2023-03-05T15:16:45.543Z,66.54
2023-03-05T15:19:13.376Z,64.94
2023-03-05T15:21:41.054Z,63.54
2023-03-05T15:24:10.186Z,63.82
2023-03-05T15:26:37.879Z,64.75
2023-03-05T15:29:05.073Z,63.03
2023-03-05T15:31:38.401Z,63.48
2023-03-05T15:34:06.078Z,65.90
2023-03-05T15:36:33.831Z,68.05
2023-03-05T15:39:01.293Z,67.32
2023-03-05T15:41:28.509Z,68.35
2023-03-05T15:43:55.435Z,71.18
2023-03-05T15:46:22.437Z,71.74
2023-03-05T15:48:50.251Z,71.17
2023-03-05T15:51:18.122Z,72.12
2023-03-05T15:53:46.377Z,72.05
2023-03-05T15:56:18.427Z,72.59
2023-03-05T15:58:45.598Z,72.17
2023-03-05T16:01:12.828Z,72.16
2023-03-05T16:03:39.951Z,71.68
2023-03-05T16:06:08.938Z,71.35
2023-03-05T16:08:36.895Z,71.32
2023-03-05T16:11:04.583Z,70.89
2023-03-05T16:13:32.572Z,71.96
2023-03-05T16:16:00.548Z,71.99
2023-03-05T16:18:29.885Z,71.76
2023-03-05T16:20:57.150Z,70.83
2023-03-05T16:23:24.096Z,70.94
2023-03-05T16:25:50.995Z,71.73
2023-03-05T16:28:17.955Z,72.01
2023-03-05T16:30:51.951Z,71.92
2023-03-05T16:33:18.902Z,72.21
2023-03-05T16:35:46.459Z,71.77
2023-03-05T16:38:14.026Z,72.37
2023-03-05T16:41:09.215Z,71.44
2023-03-05T16:43:28.531Z,71.28
2023-03-05T16:45:55.548Z,71.58
2023-03-05T16:48:22.646Z,72.13
2023-03-05T16:50:49.599Z,72.27
2023-03-05T16:53:16.763Z,72.19
2023-03-05T16:55:43.707Z,72.85
2023-03-05T16:58:10.618Z,73.29
2023-03-05T17:00:37.626Z,73.32
2023-03-05T17:03:04.794Z,73.52
2023-03-05T17:05:31.997Z,72.71
2023-03-05T17:08:02.036Z,72.85
2023-03-05T17:10:29.104Z,72.96
2023-03-05T17:12:56.842Z,72.92
2023-03-05T17:15:24.207Z,72.68
2023-03-05T17:17:51.283Z,73.04
2023-03-05T17:20:20.087Z,72.19
2023-03-05T17:22:47.265Z,71.83
2023-03-05T17:25:14.406Z,71.82
2023-03-05T17:27:41.391Z,71.14
2023-03-05T17:30:09.327Z,71.26
2023-03-05T17:32:36.686Z,71.65
2023-03-05T17:35:05.491Z,71.32
2023-03-05T17:37:32.930Z,71.24
2023-03-05T17:40:00.323Z,71.07
2023-03-05T17:42:27.287Z,70.07
2023-03-05T17:44:54.174Z,70.61
2023-03-05T17:47:22.507Z,71.00
2023-03-05T17:49:50.245Z,71.12
2023-03-05T17:52:18.186Z,70.38
2023-03-05T17:54:45.297Z,71.45
2023-03-05T17:57:12.226Z,70.88
2023-03-05T17:59:39.242Z,70.62
2023-03-05T18:02:06.968Z,71.91
2023-03-05T18:04:34.546Z,70.50
2023-03-05T18:07:01.826Z,71.09
2023-03-05T18:09:28.799Z,70.75
2023-03-05T18:11:56.236Z,71.89
2023-03-05T18:14:23.250Z,70.96
2023-03-05T18:16:50.393Z,71.18
2023-03-05T18:19:18.647Z,70.97
2023-03-05T18:21:45.887Z,71.30
2023-03-05T18:24:14.107Z,71.31
2023-03-05T18:26:41.102Z,71.01
2023-03-05T18:29:07.993Z,71.91
2023-03-05T18:31:34.948Z,71.54
2023-03-05T18:34:01.855Z,71.91
2023-03-05T18:36:28.742Z,72.49
2023-03-05T18:38:55.654Z,73.70
2023-03-05T18:41:27.987Z,73.87
2023-03-05T18:43:55.386Z,73.03
2023-03-05T18:46:22.481Z,72.73
2023-03-05T18:48:50.104Z,73.45
2023-03-05T18:51:20.176Z,73.63
2023-03-05T18:53:47.523Z,74.32
2023-03-05T18:56:14.711Z,72.99
2023-03-05T18:58:41.634Z,73.88
2023-03-05T19:01:09.295Z,74.07
2023-03-05T19:03:36.336Z,73.36
2023-03-05T19:06:07.206Z,74.01
2023-03-05T19:08:34.611Z,73.04
2023-03-05T19:11:01.611Z,72.65
2023-03-05T19:13:40.239Z,73.75
2023-03-05T19:16:13.547Z,72.96
2023-03-05T19:18:53.975Z,72.33
2023-03-05T19:21:20.980Z,71.83
2023-03-05T19:23:47.840Z,72.95
2023-03-05T19:26:14.779Z,73.04
2023-03-05T19:28:41.701Z,73.67
2023-03-05T19:31:08.700Z,74.17
2023-03-05T19:33:35.608Z,74.24
2023-03-05T19:36:02.567Z,74.76
2023-03-05T19:38:29.460Z,75.35
2023-03-05T19:40:56.404Z,75.23
2023-03-05T19:43:23.333Z,75.09
2023-03-05T19:45:50.296Z,76.00
2023-03-05T19:48:17.433Z,76.26
2023-03-05T19:50:44.398Z,76.65
2023-03-05T19:53:11.256Z,76.56
2023-03-05T19:55:41.003Z,76.59
2023-03-05T19:58:08.141Z,77.16
2023-03-05T20:00:35.065Z,77.19
2023-03-05T20:03:01.957Z,77.33
2023-03-05T20:05:28.886Z,77.38
2023-03-05T20:07:56.101Z,77.84
2023-03-05T20:10:23.176Z,77.62
2023-03-05T20:12:50.980Z,77.92
2023-03-05T20:15:19.043Z,78.40
2023-03-05T20:17:45.929Z,78.16
2023-03-05T20:20:18.034Z,79.19
2023-03-05T20:22:47.284Z,78.70
2023-03-05T20:25:16.912Z,79.12
2023-03-05T20:27:44.447Z,79.98
2023-03-05T20:30:15.447Z,79.39
2023-03-05T20:32:42.396Z,80.25
2023-03-05T20:35:15.941Z,79.99
2023-03-05T20:37:50.112Z,80.33
2023-03-05T20:40:17.934Z,80.01
2023-03-05T20:42:44.844Z,80.39
2023-03-05T20:45:12.263Z,80.42
2023-03-05T20:47:44.971Z,80.97
2023-03-05T20:50:17.010Z,81.62
2023-03-05T20:52:44.038Z,81.82
2023-03-05T20:55:12.446Z,81.80
2023-03-05T20:57:39.677Z,82.67
2023-03-05T21:00:07.788Z,82.73
2023-03-05T21:02:34.857Z,83.30
2023-03-05T21:05:01.880Z,83.43
2023-03-05T21:07:30.807Z,83.32
2023-03-05T21:09:57.727Z,83.45
2023-03-05T21:12:24.662Z,83.11
2023-03-05T21:14:51.524Z,83.56
2023-03-05T21:17:18.496Z,83.47
2023-03-05T21:19:45.414Z,83.36
2023-03-05T21:22:12.364Z,83.50
2023-03-05T21:25:03.351Z,83.79
2023-03-05T21:27:30.405Z,83.54
2023-03-05T21:29:57.315Z,83.44
2023-03-05T21:32:24.289Z,83.19
2023-03-05T21:34:51.162Z,83.08
2023-03-05T21:37:18.051Z,83.41
2023-03-05T21:39:44.973Z,82.85
2023-03-05T21:42:12.981Z,82.99
2023-03-05T21:44:40.002Z,83.04
2023-03-05T21:47:07.002Z,83.64
2023-03-05T21:49:34.131Z,84.12
2023-03-05T21:52:09.072Z,83.80
2023-03-05T21:54:41.866Z,83.45
2023-03-05T21:57:11.124Z,83.56
2023-03-05T21:59:41.911Z,83.79
2023-03-05T22:02:14.185Z,84.29
2023-03-05T22:04:41.177Z,83.81
2023-03-05T22:07:08.068Z,83.47
2023-03-05T22:09:35.428Z,83.63
2023-03-05T22:12:04.708Z,84.42
2023-03-05T22:14:31.613Z,83.46
2023-03-05T22:17:03.221Z,83.63
2023-03-05T22:19:30.268Z,84.14
2023-03-05T22:21:57.632Z,83.64
2023-03-05T22:24:27.584Z,84.21
2023-03-05T22:26:54.538Z,84.73
2023-03-05T22:29:21.357Z,83.89
2023-03-05T22:31:48.243Z,84.61
2023-03-05T22:34:15.090Z,84.10
2023-03-05T22:36:41.999Z,83.92
2023-03-05T22:39:08.938Z,83.54
2023-03-05T22:41:35.800Z,83.82
2023-03-05T22:44:02.705Z,84.36
2023-03-05T22:46:29.739Z,84.45
2023-03-05T22:48:56.796Z,83.73
2023-03-05T22:51:23.995Z,83.65
2023-03-05T22:53:51.085Z,83.57
2023-03-05T22:56:20.332Z,84.02
2023-03-05T22:58:47.370Z,84.67
2023-03-05T23:01:21.845Z,84.83
2023-03-05T23:03:54.888Z,85.03
2023-03-05T23:06:25.423Z,84.49
2023-03-05T23:08:52.343Z,85.42
2023-03-05T23:11:19.285Z,85.96
2023-03-05T23:13:46.204Z,85.42
2023-03-05T23:16:13.206Z,85.47
2023-03-05T23:18:40.234Z,84.58
2023-03-05T23:21:07.205Z,85.47
2023-03-05T23:23:34.205Z,84.20
2023-03-05T23:26:01.810Z,83.62
2023-03-05T23:28:28.810Z,85.21
2023-03-05T23:30:58.169Z,84.24
2023-03-05T23:33:25.237Z,84.39
2023-03-05T23:35:57.892Z,84.17
2023-03-05T23:38:27.973Z,84.63
2023-03-05T23:40:58.532Z,85.65
2023-03-05T23:43:27.634Z,85.29
2023-03-05T23:45:55.080Z,84.58
2023-03-05T23:48:27.205Z,84.40
2023-03-05T23:50:54.785Z,84.96
2023-03-05T23:53:29.157Z,84.82
2023-03-05T23:55:57.366Z,85.19
2023-03-05T23:58:24.512Z,84.88
